Time;durP1;ratioP1;P1;durP2;ratioP2;P2;SDS_P1;SDS_P2;PMS_P1;PMS_P2;Temp;Humidity;BMP_temperature;BMP_pressure;BME280_temperature;BME280_humidity;BME280_pressure;Samples;Min_cycle;Max_cycle;Signal;HPM_P1;HPM_P2
2022/12/09 00:01:49;;;;;;;;;;;;;;;3.20;86.02;99789.50;4895130;29;20518;-80
2022/12/09 00:04:52;;;;;;;5.45;4.03;;;;;;;3.11;86.90;99794.13;4894865;29;20554;-80
2022/12/09 00:07:57;;;;;;;8.65;4.85;;;;;;;3.06;86.70;99785.66;4894854;29;20525;-81
2022/12/09 00:11:00;;;;;;;5.00;3.97;;;;;;;3.08;86.74;99781.31;4893998;29;20506;-81
2022/12/09 00:14:03;;;;;;;5.95;4.07;;;;;;;3.11;86.50;99786.38;4904555;29;20059;-81
2022/12/09 00:17:07;;;;;;;;;;;;;;;3.37;85.55;99778.56;4895330;29;20084;-81
2022/12/09 00:20:10;;;;;;;6.72;4.13;;;;;;;3.03;86.52;99774.56;4895150;29;19927;-81
2022/12/09 00:23:14;;;;;;;6.03;4.05;;;;;;;2.99;86.89;99779.88;4895208;29;20131;-81
2022/12/09 00:26:19;;;;;;;6.72;4.97;;;;;;;3.19;86.29;99784.34;4893968;29;20056;-81
2022/12/09 00:29:22;;;;;;;6.10;4.72;;;;;;;3.25;85.35;99779.84;4894933;29;20055;-81
2022/12/09 00:32:26;;;;;;;7.90;5.45;;;;;;;3.22;85.64;99789.41;4894925;29;20217;-80
2022/12/09 00:35:30;;;;;;;5.72;4.03;;;;;;;3.18;85.72;99785.25;4894950;29;20052;-81
2022/12/09 00:38:34;;;;;;;8.18;4.68;;;;;;;3.09;85.85;99781.25;4894790;29;20132;-81
2022/12/09 00:41:39;;;;;;;8.30;3.65;;;;;;;3.15;85.81;99780.19;4905043;29;20075;-81
2022/12/09 00:44:42;;;;;;;;;;;;;;;3.03;86.51;99777.16;4894432;29;20064;-81
2022/12/09 00:47:45;;;;;;;5.85;3.50;;;;;;;3.02;86.53;99775.44;4895211;29;20045;-81
2022/12/09 00:50:48;;;;;;;;;;;;;;;3.11;85.86;99770.88;4903855;29;20094;-81
2022/12/09 00:53:54;;;;;;;6.82;4.20;;;;;;;3.09;86.04;99775.22;4913411;29;20325;-81
2022/12/09 00:56:58;;;;;;;8.10;3.88;;;;;;;3.29;85.37;99780.59;4913843;29;20325;-80
2022/12/09 01:00:03;;;;;;;8.02;4.40;;;;;;;3.20;85.00;99771.41;4913032;29;20054;-80
2022/12/09 01:03:12;;;;;;;6.68;4.97;;;;;;;3.13;85.23;99766.50;4910301;29;20114;-80
2022/12/09 01:06:20;;;;;;;6.15;4.28;;;;;;;3.03;85.79;99774.56;4912029;29;20087;-81
2022/12/09 01:09:23;;;;;;;6.55;4.35;;;;;;;2.92;86.43;99774.06;4910960;29;20103;-80
2022/12/09 01:12:27;;;;;;;;;;;;;;;2.88;87.06;99769.91;4911052;29;20055;-80
2022/12/09 01:15:31;;;;;;;7.80;4.87;;;;;;;2.99;86.41;99767.78;4911483;29;19931;-81
2022/12/09 01:18:34;;;;;;;7.68;6.40;;;;;;;2.94;85.89;99772.28;4913139;29;20644;-81
2022/12/09 01:21:37;;;;;;;8.60;5.50;;;;;;;2.70;87.12;99767.91;4912176;29;20051;-81
2022/12/09 01:24:42;;;;;;;6.50;3.78;;;;;;;2.90;86.03;99777.56;4911907;29;20107;-81
2022/12/09 01:27:46;;;;;;;;;;;;;;;2.82;86.10;99770.09;4913135;29;20083;-82
2022/12/09 01:30:49;;;;;;;5.35;3.90;;;;;;;2.88;86.40;99777.66;4912857;29;19970;-82
2022/12/09 01:33:55;;;;;;;6.32;4.10;;;;;;;3.02;85.80;99767.69;4911592;29;20099;-81
2022/12/09 01:36:58;;;;;;;6.15;4.30;;;;;;;3.05;85.77;99765.91;4910840;29;20180;-81
2022/12/09 01:40:06;;;;;;;6.65;4.65;;;;;;;3.00;86.23;99764.34;4911871;29;20468;-80
2022/12/09 01:43:17;;;;;;;8.93;5.82;;;;;;;3.10;85.31;99759.69;4911903;29;20054;-80
2022/12/09 01:46:20;;;;;;;5.78;4.40;;;;;;;2.90;85.84;99762.94;4912323;29;20438;-81
2022/12/09 01:49:26;;;;;;;;;;;;;;;2.82;86.17;99758.94;4911823;29;20104;-81
2022/12/09 01:52:29;;;;;;;7.50;4.88;;;;;;;2.78;86.02;99763.34;4912802;29;19937;-80
2022/12/09 01:55:34;;;;;;;9.05;6.13;;;;;;;2.77;86.10;99751.31;4911239;29;20055;-80
2022/12/09 01:58:37;;;;;;;7.30;5.55;;;;;;;2.82;86.02;99754.59;4912482;29;20110;-80
2022/12/09 02:01:43;;;;;;;;;;;;;;;2.80;85.88;99751.22;4911524;29;20051;-81
2022/12/09 02:04:49;;;;;;;6.47;4.32;;;;;;;2.84;85.35;99747.66;4912126;29;20551;-81
2022/12/09 02:07:54;;;;;;;6.82;4.50;;;;;;;2.92;84.83;99752.56;4911511;29;20059;-81
2022/12/09 02:11:10;;;;;;;;;;;;;;;2.91;84.98;99745.72;4911989;29;20072;-82
2022/12/09 02:14:53;;;;;;;9.75;4.70;;;;;;;2.90;84.91;99752.59;4911119;29;20361;-82
2022/12/09 02:18:00;;;;;;;7.57;5.35;;;;;;;2.87;85.66;99752.72;4912216;29;20354;-81
2022/12/09 02:21:17;;;;;;;8.10;6.10;;;;;;;3.06;85.50;99752.94;4911361;29;20055;-82
2022/12/09 02:24:58;;;;;;;8.20;5.57;;;;;;;3.09;84.53;99749.41;4912291;29;20095;-82
2022/12/09 02:28:21;;;;;;;7.88;5.45;;;;;;;2.95;84.62;99745.56;4911246;29;20094;-82
2022/12/09 02:31:42;;;;;;;10.45;5.38;;;;;;;2.71;85.19;99746.34;4910994;29;20059;-82
2022/12/09 02:34:54;;;;;;;7.90;4.80;;;;;;;2.78;85.58;99742.69;4911599;29;20528;-83
2022/12/09 02:38:20;;;;;;;9.38;6.82;;;;;;;2.93;85.27;99737.00;4911566;29;20067;-82
2022/12/09 02:41:27;;;;;;;9.02;6.63;;;;;;;2.90;85.28;99729.34;4911162;29;20050;-82
2022/12/09 02:44:33;;;;;;;8.25;6.75;;;;;;;2.83;85.93;99734.78;4911113;29;20127;-82
2022/12/09 02:47:43;;;;;;;8.98;6.68;;;;;;;2.74;85.67;99730.75;4911218;29;20144;-83
2022/12/09 02:50:52;;;;;;;6.60;5.03;;;;;;;2.74;85.34;99725.59;4900993;29;20119;-82
2022/12/09 02:54:02;;;;;;;7.70;4.82;;;;;;;2.74;84.90;99721.31;4892307;29;20109;-82
2022/12/09 02:57:27;;;;;;;11.30;7.07;;;;;;;2.98;84.37;99717.03;4903038;29;20382;-82
2022/12/09 03:00:31;;;;;;;11.05;7.53;;;;;;;2.97;84.41;99715.38;4892778;29;20107;-82
2022/12/09 03:03:35;;;;;;;11.90;7.20;;;;;;;2.88;84.80;99712.25;4892455;29;20116;-82
2022/12/09 03:06:48;;;;;;;8.13;5.40;;;;;;;2.61;85.76;99708.84;4893965;29;20063;-82
2022/12/09 03:10:02;;;;;;;6.25;4.82;;;;;;;2.58;86.09;99701.19;4899841;29;20135;-82
2022/12/09 03:13:17;;;;;;;7.45;4.57;;;;;;;2.49;85.78;99703.19;4899887;29;20047;-82
2022/12/09 03:16:34;;;;;;;6.07;4.82;;;;;;;2.50;85.98;99696.28;4910117;29;20052;-81
2022/12/09 03:19:44;;;;;;;6.30;4.15;;;;;;;2.60;84.55;99697.66;4899780;29;20123;-81
2022/12/09 03:22:49;;;;;;;6.30;4.57;;;;;;;2.65;84.49;99694.94;4899725;29;20051;-83
2022/12/09 03:25:53;;;;;;;5.25;3.60;;;;;;;2.68;84.31;99692.25;4899738;29;20131;-82
2022/12/09 03:29:02;;;;;;;5.88;3.63;;;;;;;2.64;84.20;99688.94;4899348;29;20113;-82
2022/12/09 03:32:09;;;;;;;5.63;4.30;;;;;;;2.59;84.73;99687.41;4899150;29;20521;-82
2022/12/09 03:35:22;;;;;;;7.13;4.25;;;;;;;2.63;84.52;99681.25;4899482;29;20195;-80
2022/12/09 03:38:31;;;;;;;7.85;4.68;;;;;;;2.70;83.94;99682.72;4899506;29;20534;-80
2022/12/09 03:41:37;;;;;;;6.65;5.07;;;;;;;2.62;84.90;99677.81;4899364;29;20192;-81
2022/12/09 03:44:55;;;;;;;8.55;6.13;;;;;;;2.66;85.00;99688.88;4898952;29;20039;-81
2022/12/09 03:47:58;;;;;;;10.63;6.05;;;;;;;2.54;85.05;99688.38;4899165;29;20059;-81
2022/12/09 03:51:09;;;;;;;;;;;;;;;2.42;85.65;99683.63;4899720;29;20124;-81
2022/12/09 03:54:25;;;;;;;7.47;4.90;;;;;;;2.45;85.22;99682.69;4899125;29;19925;-81
2022/12/09 03:57:34;;;;;;;7.22;5.30;;;;;;;2.37;85.81;99685.53;4898157;29;20055;-81
2022/12/09 04:00:39;;;;;;;11.63;6.22;;;;;;;2.45;85.13;99683.53;4899131;29;20525;-81
2022/12/09 04:03:46;;;;;;;14.80;5.93;;;;;;;2.47;85.56;99676.59;4899089;29;20415;-81
2022/12/09 04:06:52;;;;;;;11.65;6.15;;;;;;;2.41;85.66;99681.09;4898048;29;20657;-80
2022/12/09 04:09:55;;;;;;;10.48;6.10;;;;;;;2.58;85.05;99677.97;4898852;29;20104;-79
2022/12/09 04:12:59;;;;;;;12.52;8.25;;;;;;;2.69;83.98;99681.03;4898828;29;20115;-79
2022/12/09 04:16:02;;;;;;;14.30;8.15;;;;;;;2.47;85.10;99681.75;4898837;29;20419;-80
2022/12/09 04:19:05;;;;;;;12.45;6.95;;;;;;;2.55;84.59;99681.47;4897382;29;20048;-82
2022/12/09 04:22:08;;;;;;;9.50;6.60;;;;;;;2.42;84.86;99682.78;4898597;29;20086;-82
2022/12/09 04:25:12;;;;;;;17.08;8.13;;;;;;;2.48;84.85;99680.00;4898717;29;20100;-82
2022/12/09 04:28:15;;;;;;;11.85;7.78;;;;;;;2.58;84.61;99677.97;4898537;29;20198;-80
2022/12/09 04:31:19;;;;;;;;;;;;;;;2.52;84.57;99672.13;4899124;29;20079;-80
2022/12/09 04:34:22;;;;;;;10.63;6.93;;;;;;;2.22;85.80;99679.09;4898634;29;19991;-80
2022/12/09 04:37:25;;;;;;;9.88;7.03;;;;;;;2.22;85.43;99670.53;4898546;29;20107;-80
2022/12/09 04:40:29;;;;;;;11.07;6.75;;;;;;;2.13;85.97;99678.56;4898567;29;20083;-81
2022/12/09 04:43:33;;;;;;;8.52;6.65;;;;;;;2.28;85.94;99670.34;4898244;29;20147;-81
2022/12/09 04:46:36;;;;;;;9.05;6.97;;;;;;;2.40;85.48;99675.09;4898597;29;20063;-81
2022/12/09 04:49:40;;;;;;;12.27;6.70;;;;;;;2.45;85.48;99673.19;4898268;29;20075;-81
2022/12/09 04:52:43;;;;;;;;;;;;;;;2.40;85.20;99664.78;4898816;29;20091;-83
2022/12/09 04:55:46;;;;;;;11.32;7.13;;;;;;;2.48;84.94;99667.09;4898012;29;20342;-80
2022/12/09 04:58:50;;;;;;;10.57;6.65;;;;;;;2.50;85.36;99665.31;4898231;29;20047;-80
2022/12/09 05:01:53;;;;;;;10.23;6.22;;;;;;;2.42;85.34;99668.13;4899075;29;20056;-80
2022/12/09 05:05:00;;;;;;;13.00;7.72;;;;;;;2.43;85.79;99663.84;4897896;29;20047;-80
2022/12/09 05:08:04;;;;;;;12.40;7.57;;;;;;;2.49;85.83;99664.50;4897805;29;20422;-80
2022/12/09 05:11:07;;;;;;;;;;;;;;;2.47;85.28;99676.59;4898100;29;20050;-81
2022/12/09 05:14:11;;;;;;;8.05;6.40;;;;;;;2.46;85.22;99669.75;4898032;29;19926;-82
2022/12/09 05:17:15;;;;;;;7.50;6.20;;;;;;;2.43;85.71;99667.25;4897747;29;20059;-83
2022/12/09 05:20:18;;;;;;;;;;;;;;;2.42;86.03;99675.88;4898140;29;20075;-81
2022/12/09 05:23:42;;;;;;;8.10;5.72;;;;;;;2.35;86.34;99676.13;4564631;29;10000696;-82
2022/12/09 05:26:47;;;;;;;15.43;7.68;;;;;;;2.41;85.76;99670.78;4904276;29;20561;-81
2022/12/09 05:29:51;;;;;;;7.97;5.55;;;;;;;2.40;85.78;99663.94;4911421;29;20521;-82
2022/12/09 05:32:55;;;;;;;8.23;5.90;;;;;;;2.33;85.99;99664.13;4895015;29;20103;-81
2022/12/09 05:36:02;;;;;;;6.97;5.47;;;;;;;2.39;85.91;99654.50;4912051;29;20111;-81
2022/12/09 05:39:06;;;;;;;8.45;5.80;;;;;;;2.33;85.82;99658.16;4910962;29;20522;-79
2022/12/09 05:42:36;;;;;;;12.55;8.13;;;;;;;2.23;86.12;99656.72;4911643;29;20052;-81
2022/12/09 05:45:40;;;;;;;13.15;8.07;;;;;;;2.23;85.95;99651.56;4911486;29;20328;-81
2022/12/09 05:48:44;;;;;;;10.25;7.18;;;;;;;2.25;86.16;99654.94;4911869;29;20051;-81
2022/12/09 05:51:47;;;;;;;9.20;6.65;;;;;;;2.30;85.85;99647.94;4916599;29;20132;-81
2022/12/09 05:54:50;;;;;;;9.15;7.22;;;;;;;2.49;85.42;99648.13;4914050;29;20099;-81
2022/12/09 05:57:54;;;;;;;9.52;6.50;;;;;;;2.41;84.84;99643.25;4911469;29;20075;-81
2022/12/09 06:01:05;;;;;;;;;;;;;;;2.59;85.04;99640.97;4912480;29;20582;-81
2022/12/09 06:04:11;;;;;;;12.13;9.60;;;;;;;2.47;84.84;99644.78;4911878;29;19926;-82
2022/12/09 06:07:14;;;;;;;12.55;9.85;;;;;;;2.44;85.18;99635.41;4920956;29;20059;-82
2022/12/09 06:10:17;;;;;;;;;;;;;;;2.41;85.73;99639.81;4912171;29;20035;-83
2022/12/09 06:13:21;;;;;;;11.25;8.00;;;;;;;2.42;86.13;99631.19;4910840;29;20015;-83
2022/12/09 06:16:24;;;;;;;12.23;9.15;;;;;;;2.50;85.83;99629.19;4913634;29;20473;-81
2022/12/09 06:19:28;;;;;;;10.43;8.43;;;;;;;2.57;85.29;99630.66;4909636;29;20055;-82
2022/12/09 06:22:43;;;;;;;12.23;8.88;;;;;;;2.55;85.04;99632.44;4908552;29;20043;-82
2022/12/09 06:25:46;;;;;;;13.60;10.23;;;;;;;2.58;84.73;99632.34;4911197;29;20111;-82
2022/12/09 06:28:50;;;;;;;;;;;;;;;2.61;84.48;99629.66;4912785;29;20557;-82
2022/12/09 06:31:55;;;;;;;15.95;8.80;;;;;;;2.50;84.43;99637.78;4911383;29;20040;-83
2022/12/09 06:34:59;;;;;;;9.65;7.20;;;;;;;2.38;86.13;99639.94;4912411;29;20597;-82
2022/12/09 06:38:03;;;;;;;11.48;7.40;;;;;;;2.56;85.19;99635.00;4910587;29;20542;-82
2022/12/09 06:41:10;;;;;;;;;;;;;;;2.61;84.86;99631.41;4911917;29;20180;-83
2022/12/09 06:44:13;;;;;;;10.90;8.70;;;;;;;2.61;84.78;99632.25;4929735;29;19930;-82
2022/12/09 06:47:17;;;;;;;;;;;;;;;2.67;84.86;99626.03;4912325;29;20111;-82
2022/12/09 06:50:22;;;;;;;10.93;7.57;;;;;;;2.62;85.05;99625.38;4925134;29;20388;-83
2022/12/09 06:53:26;;;;;;;17.17;9.27;;;;;;;2.51;85.28;99636.03;4914553;29;20513;-83
2022/12/09 06:56:31;;;;;;;14.38;8.40;;;;;;;2.72;84.81;99634.47;4916960;29;20139;-81
2022/12/09 06:59:34;;;;;;;15.75;10.85;;;;;;;2.74;84.32;99637.84;4936434;29;20058;-82
2022/12/09 07:02:37;;;;;;;13.05;9.32;;;;;;;2.76;83.98;99639.47;4937932;29;20070;-80
2022/12/09 07:05:41;;;;;;;14.98;10.07;;;;;;;2.69;84.70;99643.16;4937762;29;20042;-81
2022/12/09 07:08:45;;;;;;;14.00;9.88;;;;;;;2.54;85.09;99641.94;4917191;29;20086;-80
2022/12/09 07:11:49;;;;;;;10.63;7.15;;;;;;;2.36;86.45;99645.13;4911307;29;20055;-80
2022/12/09 07:14:52;;;;;;;10.23;8.35;;;;;;;2.54;85.98;99639.34;4913804;29;20127;-80
2022/12/09 07:17:56;;;;;;;10.07;7.85;;;;;;;2.45;86.66;99643.97;4911790;29;20059;-81
2022/12/09 07:21:21;;;;;;;12.00;7.78;;;;;;;2.54;86.68;99636.78;4914624;29;20054;-81
2022/12/09 07:25:37;;;;;;;17.02;8.20;;;;;;;2.55;85.30;99641.06;4908446;29;20532;-82
2022/12/09 07:28:38;;;;;;;12.05;7.72;;;;;;;2.58;85.30;99637.50;4913116;29;20135;-81
2022/12/09 07:31:47;;;;;;;10.65;7.30;;;;;;;2.66;85.49;99640.69;4922300;29;20054;-81
2022/12/09 07:34:51;;;;;;;11.52;7.30;;;;;;;2.64;85.40;99639.06;4913562;29;20103;-82
2022/12/09 07:37:54;;;;;;;10.30;7.82;;;;;;;2.75;85.10;99649.88;4913501;29;20163;-81
2022/12/09 07:42:09;;;;;;;11.35;7.57;;;;;;;2.67;85.13;99637.19;4914315;29;20142;-80
2022/12/09 07:45:23;;;;;;;12.45;9.00;;;;;;;2.75;85.23;99649.88;4910201;29;20422;-81
2022/12/09 07:48:28;;;;;;;13.52;11.05;;;;;;;2.80;84.68;99653.13;4905036;29;20043;-80
2022/12/09 07:51:34;;;;;;;17.55;13.65;;;;;;;2.69;85.24;99650.91;4919392;29;20049;-82
2022/12/09 07:54:38;;;;;;;14.07;9.55;;;;;;;2.78;85.02;99650.59;4913500;29;20565;-79
2022/12/09 07:57:43;;;;;;;10.48;7.95;;;;;;;2.81;85.26;99649.66;4913928;29;20047;-80
2022/12/09 08:00:46;;;;;;;11.23;7.95;;;;;;;2.75;85.71;99639.53;4905200;29;20039;-82
2022/12/09 08:03:50;;;;;;;;;;;;;;;2.77;84.46;99642.88;4914200;29;20154;-81
2022/12/09 08:06:54;;;;;;;12.25;9.30;;;;;;;2.89;84.26;99636.47;4912630;29;19958;-81
2022/12/09 08:09:58;;;;;;;15.85;11.77;;;;;;;2.89;83.94;99637.31;4913826;29;20046;-81
2022/12/09 08:13:01;;;;;;;16.90;12.07;;;;;;;2.86;84.52;99636.56;4914067;29;20307;-81
2022/12/09 08:16:05;;;;;;;;;;;;;;;2.88;84.63;99645.13;4897916;29;20104;-80
2022/12/09 08:19:10;;;;;;;19.63;16.00;;;;;;;2.71;84.83;99636.22;4916493;29;19925;-80
2022/12/09 08:22:14;;;;;;;20.38;14.52;;;;;;;2.79;84.70;99644.53;4922444;29;20646;-80
2022/12/09 08:25:20;;;;;;;16.40;14.07;;;;;;;3.09;83.15;99638.34;4897632;29;20067;-82
2022/12/09 08:28:24;;;;;;;16.77;13.90;;;;;;;3.03;84.31;99642.84;4907399;29;20465;-81
2022/12/09 08:31:28;;;;;;;20.77;14.80;;;;;;;2.93;83.99;99643.19;4907917;29;20100;-80
2022/12/09 08:34:31;;;;;;;19.85;14.57;;;;;;;3.01;83.47;99634.31;4896390;29;20156;-81
2022/12/09 08:37:34;;;;;;;19.25;14.48;;;;;;;2.97;83.42;99640.47;4897446;29;20418;-82
2022/12/09 08:40:38;;;;;;;21.45;14.55;;;;;;;2.91;83.92;99645.84;4908171;29;20605;-79
2022/12/09 08:43:43;;;;;;;21.13;15.32;;;;;;;3.08;83.82;99641.84;4896360;29;20071;-78
2022/12/09 08:46:50;;;;;;;19.90;15.70;;;;;;;3.08;83.42;99641.84;4897002;29;20051;-78
2022/12/09 08:49:54;;;;;;;18.48;15.50;;;;;;;3.15;82.97;99643.28;4897244;29;20418;-79
2022/12/09 08:52:57;;;;;;;20.50;16.95;;;;;;;3.00;82.48;99640.38;4897192;29;20079;-80
2022/12/09 08:56:10;;;;;;;19.63;15.30;;;;;;;3.04;82.95;99630.78;4896566;29;20055;-80
2022/12/09 08:59:14;;;;;;;23.17;15.45;;;;;;;3.09;83.25;99638.34;4897947;29;20075;-80
2022/12/09 09:02:17;;;;;;;19.75;15.95;;;;;;;2.96;83.38;99628.44;4897670;29;20067;-79
2022/12/09 09:05:21;;;;;;;17.83;15.73;;;;;;;3.20;82.25;99631.06;4897658;29;20055;-80
2022/12/09 09:08:24;;;;;;;21.63;16.83;;;;;;;3.10;82.32;99632.31;4896894;29;20083;-79
2022/12/09 09:11:29;;;;;;;19.55;15.50;;;;;;;3.08;82.76;99632.34;4897851;29;20075;-79
2022/12/09 09:14:32;;;;;;;23.30;18.02;;;;;;;3.15;82.33;99633.78;4897921;29;20052;-79
2022/12/09 09:17:35;;;;;;;20.48;14.80;;;;;;;3.12;82.76;99627.91;4897650;29;20104;-79
2022/12/09 09:20:47;;;;;;;21.60;17.02;;;;;;;3.10;82.97;99629.72;4897576;29;20104;-80
2022/12/09 09:23:51;;;;;;;23.17;16.83;;;;;;;3.29;82.75;99635.03;4897822;29;20517;-79
2022/12/09 09:26:55;;;;;;;22.75;16.90;;;;;;;3.32;82.71;99627.16;4897570;29;20055;-79
2022/12/09 09:29:59;;;;;;;19.80;16.48;;;;;;;3.46;81.87;99627.50;4897344;29;20119;-79
2022/12/09 09:33:03;;;;;;;22.27;18.33;;;;;;;3.37;81.80;99626.09;4897402;29;20075;-79
2022/12/09 09:36:07;;;;;;;;;;;;;;;3.36;81.56;99623.59;4897817;29;20514;-79
2022/12/09 09:39:12;;;;;;;25.13;17.92;;;;;;;3.43;81.76;99625.88;4897479;29;19937;-78
2022/12/09 09:42:28;;;;;;;21.83;17.38;;;;;;;3.43;81.74;99618.13;4897277;29;20526;-78
2022/12/09 09:45:31;;;;;;;23.42;17.77;;;;;;;3.42;81.68;99610.44;4896799;29;20514;-78
2022/12/09 09:48:35;;;;;;;22.73;17.13;;;;;;;3.40;81.75;99600.16;4897143;29;20056;-78
2022/12/09 09:51:41;;;;;;;24.45;18.33;;;;;;;3.23;82.28;99605.94;4896579;29;20111;-79
2022/12/09 09:54:46;;;;;;;20.98;16.42;;;;;;;3.36;82.12;99608.94;4897212;29;20044;-82
2022/12/09 09:57:53;;;;;;;20.80;16.52;;;;;;;3.39;81.26;99600.22;4897126;29;20470;-80
2022/12/09 10:01:30;;;;;;;22.23;17.83;;;;;;;3.45;80.76;99595.66;4897126;29;20051;-81
2022/12/09 10:04:43;;;;;;;21.48;17.60;;;;;;;3.35;81.44;99603.81;4896893;29;20051;-84
2022/12/09 10:08:02;;;;;;;21.20;17.65;;;;;;;3.43;82.04;99599.19;4897058;29;20095;-78
2022/12/09 10:11:14;;;;;;;31.35;21.90;;;;;;;3.66;80.85;99582.81;4897068;29;20100;-81
2022/12/09 10:14:29;;;;;;;22.70;19.10;;;;;;;3.61;81.31;99582.16;4896685;29;20046;-82
2022/12/09 10:17:38;;;;;;;22.08;17.83;;;;;;;3.67;80.71;99584.47;4896731;29;20099;-83
2022/12/09 10:20:42;;;;;;;23.67;18.02;;;;;;;3.55;80.60;99593.56;4897193;29;20075;-83
2022/12/09 10:23:47;;;;;;;23.48;16.92;;;;;;;3.50;80.42;99591.16;4896758;29;20048;-80
2022/12/09 10:27:04;;;;;;;21.95;16.92;;;;;;;3.41;79.58;99582.91;4896509;29;20052;-79
2022/12/09 10:30:13;;;;;;;22.13;17.60;;;;;;;3.41;80.20;99586.31;4896539;29;20525;-80
2022/12/09 10:33:22;;;;;;;23.63;17.75;;;;;;;3.36;79.98;99585.66;4896030;29;20527;-80
2022/12/09 10:36:29;;;;;;;25.52;17.73;;;;;;;3.31;81.32;99585.00;4913104;29;20280;-81
2022/12/09 10:39:33;;;;;;;21.30;17.17;;;;;;;3.27;79.53;99580.84;4908782;29;20071;-79
2022/12/09 10:46:22;;;;;;;22.00;17.35;;;;;;;3.62;79.32;99586.41;4892238;29;20047;-80
2022/12/09 10:49:26;;;;;;;22.90;17.35;;;;;;;3.50;79.86;99587.72;4891939;29;20079;-80
2022/12/09 10:52:41;;;;;;;20.00;15.65;;;;;;;3.43;79.48;99586.28;4898330;29;20047;-80
2022/12/09 10:55:50;;;;;;;18.83;14.88;;;;;;;3.61;79.18;99577.00;4910689;29;20514;-79
2022/12/09 10:59:24;;;;;;;21.55;16.55;;;;;;;3.68;78.66;99575.84;4908521;29;20039;-79
2022/12/09 11:02:29;;;;;;;21.40;16.77;;;;;;;3.61;79.05;99577.81;4909390;29;20399;-79
2022/12/09 11:05:33;;;;;;;22.52;16.27;;;;;;;3.62;78.58;99581.25;4909633;29;20597;-79
2022/12/09 11:08:39;;;;;;;22.77;17.13;;;;;;;3.84;77.40;99576.91;4911200;29;20087;-80
2022/12/09 11:11:47;;;;;;;21.15;16.05;;;;;;;3.75;77.51;99566.94;4921833;29;20054;-79
2022/12/09 11:14:53;;;;;;;19.60;14.60;;;;;;;3.85;77.10;99562.25;4910735;29;20043;-78
2022/12/09 11:18:31;;;;;;;20.67;15.25;;;;;;;3.94;77.03;99560.13;4910512;29;20104;-75
2022/12/09 11:21:35;;;;;;;19.17;14.30;;;;;;;3.91;76.26;99554.22;4909333;29;20414;-80
2022/12/09 11:24:40;;;;;;;17.63;14.25;;;;;;;4.04;75.78;99546.81;4910073;29;20541;-79
2022/12/09 11:28:15;;;;;;;20.50;14.15;;;;;;;4.05;75.72;99549.34;4910801;29;20084;-80
2022/12/09 11:31:21;;;;;;;16.77;14.27;;;;;;;3.85;76.60;99550.16;4915015;29;20043;-81
2022/12/09 11:34:26;;;;;;;21.45;14.35;;;;;;;3.95;76.82;99551.44;4915018;29;20103;-80
2022/12/09 11:56:39;;;;;;;16.83;12.88;;;;;;;3.76;74.91;99531.56;4949290;28;20115;-79
2022/12/09 11:59:54;;;;;;;16.60;11.75;;;;;;;3.81;74.29;99533.06;4951591;28;20101;-79
2022/12/09 12:03:10;;;;;;;18.00;14.10;;;;;;;3.96;73.54;99532.47;4950717;28;20075;-78
2022/12/09 12:06:27;;;;;;;16.48;12.32;;;;;;;3.71;75.71;99534.34;4949852;28;20046;-70
2022/12/09 12:09:39;;;;;;;14.35;11.95;;;;;;;3.23;78.80;99527.63;4969818;28;20086;-71
2022/12/09 12:13:01;;;;;;;14.80;11.98;;;;;;;3.69;77.97;99530.97;4974533;28;20045;-80
2022/12/09 12:16:23;;;;;;;22.60;13.52;;;;;;;3.83;76.69;99527.84;4975367;28;20404;-79
2022/12/09 12:19:33;;;;;;;16.52;12.43;;;;;;;3.96;74.65;99529.03;4974918;28;20054;-78
2022/12/09 12:22:46;;;;;;;18.00;12.73;;;;;;;3.86;75.03;99518.22;4974829;28;20185;-79
2022/12/09 12:26:34;;;;;;;15.48;12.40;;;;;;;3.88;74.70;99519.00;4974736;28;20054;-79
2022/12/09 12:29:58;;;;;;;16.40;13.68;;;;;;;3.78;75.96;99522.03;4969811;28;20623;-79
2022/12/09 12:33:40;;;;;;;20.02;14.95;;;;;;;3.84;75.57;99517.44;4974005;28;20090;-78
2022/12/09 12:37:11;;;;;;;14.40;11.70;;;;;;;3.79;75.80;99511.59;4959475;28;20081;-81
2022/12/09 12:40:37;;;;;;;13.57;10.50;;;;;;;3.70;78.20;99512.84;4962176;28;20097;-79
2022/12/09 12:47:57;;;;;;;15.13;10.60;;;;;;;3.64;78.71;99513.09;4974506;28;20081;-79
2022/12/09 12:51:17;;;;;;;12.73;10.52;;;;;;;3.59;78.88;99514.16;4955313;29;20046;-79
2022/12/09 12:54:49;;;;;;;15.48;11.70;;;;;;;3.61;77.98;99512.38;4954186;29;20050;-79
2022/12/09 12:57:55;;;;;;;15.25;12.23;;;;;;;3.76;77.74;99511.72;4916762;29;20051;-79
2022/12/09 13:01:13;;;;;;;18.08;13.65;;;;;;;3.73;76.41;99506.69;4917152;29;20566;-79
2022/12/09 13:04:20;;;;;;;21.48;14.45;;;;;;;3.79;77.20;99503.00;4916506;29;20086;-80
2022/12/09 13:07:45;;;;;;;28.77;25.25;;;;;;;3.72;77.49;99505.84;4916654;29;20131;-80
2022/12/09 13:10:54;;;;;;;50.13;43.53;;;;;;;3.72;77.05;99508.44;4916854;29;20774;-79
2022/12/09 13:14:15;;;;;;;32.55;29.17;;;;;;;3.68;76.60;99498.28;4916711;29;20077;-79
2022/12/09 13:17:25;;;;;;;26.10;23.30;;;;;;;3.87;76.69;99508.72;4916670;29;20047;-79
2022/12/09 13:25:48;;;;;;;17.30;12.38;;;;;;;4.24;76.69;99497.66;4891824;29;20052;-80
2022/12/09 13:33:58;;;;;;;14.63;11.57;;;;;;;4.47;73.77;99490.66;4897606;29;20129;-78
2022/12/09 13:37:03;;;;;;;13.88;10.70;;;;;;;4.62;73.85;99488.22;4888458;29;20530;-76
2022/12/09 13:40:35;;;;;;;12.90;9.63;;;;;;;4.82;72.27;99497.72;4896253;29;20536;-77
2022/12/09 13:43:41;;;;;;;14.13;10.10;;;;;;;4.57;71.62;99495.38;4896177;29;20123;-78
2022/12/09 13:46:44;;;;;;;10.98;8.80;;;;;;;4.57;72.46;99503.13;4896787;29;20090;-75
2022/12/09 13:49:56;;;;;;;11.80;8.77;;;;;;;4.52;72.02;99501.66;4896486;29;20063;-77
2022/12/09 13:53:03;;;;;;;15.30;11.45;;;;;;;4.52;72.90;99497.31;4896669;29;20052;-77
2022/12/09 13:56:16;;;;;;;13.90;9.77;;;;;;;4.42;71.89;99496.88;4919215;29;20135;-79
2022/12/09 14:03:34;;;;;;;13.30;9.48;;;;;;;4.10;72.98;99503.44;4926789;29;20116;-79
2022/12/09 14:07:14;;;;;;;12.60;8.80;;;;;;;3.88;73.50;99516.41;4919954;29;20152;-76
2022/12/09 14:10:43;;;;;;;13.07;9.18;;;;;;;3.94;73.72;99516.16;4927734;29;20046;-79
2022/12/09 14:14:11;;;;;;;13.05;8.68;;;;;;;3.67;74.57;99519.84;4930753;29;20086;-80
2022/12/09 14:17:29;;;;;;;13.45;9.73;;;;;;;3.63;74.15;99528.63;4912190;29;20079;-80
2022/12/09 14:20:37;;;;;;;11.10;8.88;;;;;;;3.50;74.86;99539.44;4921711;29;20051;-80
2022/12/09 14:24:06;;;;;;;10.80;8.45;;;;;;;3.41;75.25;99542.38;4929692;29;20077;-77
2022/12/09 14:27:16;;;;;;;13.63;10.60;;;;;;;3.34;75.33;99543.53;4929021;29;20561;-77
2022/12/09 14:30:22;;;;;;;14.23;10.15;;;;;;;3.44;75.24;99537.09;4930638;29;20069;-81
2022/12/09 14:33:34;;;;;;;13.52;9.35;;;;;;;3.22;75.74;99549.16;4930898;29;20669;-82
2022/12/09 14:36:48;;;;;;;16.15;10.18;;;;;;;3.24;75.71;99549.97;4915320;29;20058;-83
2022/12/09 14:40:24;;;;;;;25.65;18.33;;;;;;;3.39;75.56;99539.03;4948038;29;20371;-82
2022/12/09 14:44:11;;;;;;;16.95;12.55;;;;;;;3.28;76.63;99551.50;4928197;29;20103;-81
2022/12/09 14:47:25;;;;;;;13.85;10.15;;;;;;;3.18;76.51;99545.03;4923171;29;20521;-81
2022/12/09 14:50:37;;;;;;;12.45;10.48;;;;;;;2.87;78.00;99550.47;4928374;29;20054;-84
2022/12/09 14:53:45;;;;;;;13.30;10.10;;;;;;;2.81;78.40;99556.72;4932783;29;20067;-83
2022/12/09 14:56:56;;;;;;;11.05;8.60;;;;;;;2.92;78.22;99559.75;4931986;29;20083;-81
2022/12/09 15:00:01;;;;;;;13.77;10.18;;;;;;;2.79;78.12;99574.81;4932984;29;20047;-83
2022/12/09 15:03:21;;;;;;;13.30;9.43;;;;;;;2.66;78.05;99570.16;4935400;29;20071;-84
2022/12/09 15:06:28;;;;;;;11.38;9.40;;;;;;;2.43;79.17;99566.66;4937823;29;20050;-79
2022/12/09 15:09:35;;;;;;;11.80;9.73;;;;;;;2.36;79.12;99577.19;4937071;29;20081;-81
2022/12/09 15:12:42;;;;;;;12.77;9.55;;;;;;;2.45;78.45;99575.16;4937622;29;20410;-80
2022/12/09 15:15:45;;;;;;;14.95;8.95;;;;;;;2.36;78.40;99565.16;4937681;29;20058;-79
2022/12/09 15:18:53;;;;;;;12.45;9.38;;;;;;;2.32;78.78;99561.00;4930997;29;20051;-82
2022/12/09 15:22:00;;;;;;;10.93;8.77;;;;;;;2.21;79.38;99570.84;4938178;29;20094;-86
2022/12/09 15:25:15;;;;;;;12.93;8.95;;;;;;;2.33;79.49;99570.44;4925066;29;20171;-80
2022/12/09 15:28:45;;;;;;;11.68;9.35;;;;;;;2.36;79.82;99572.88;4937831;29;20078;-80
2022/12/09 15:31:49;;;;;;;12.10;9.45;;;;;;;2.30;80.48;99575.69;4937471;29;20541;-79
2022/12/09 15:35:13;;;;;;;9.98;8.23;;;;;;;2.53;79.24;99588.66;4936657;29;20055;-80
2022/12/09 15:38:17;;;;;;;15.07;10.63;;;;;;;2.64;78.79;99585.69;4936606;29;20473;-80
2022/12/09 15:45:11;;;;;;;11.52;8.57;;;;;;;2.77;77.57;99586.94;4935723;29;20123;-77